Time;durP1;ratioP1;P1;durP2;ratioP2;P2;SDS_P1;SDS_P2;PMS_P1;PMS_P2;Temp;Humidity;BMP_temperature;BMP_pressure;BME280_temperature;BME280_humidity;BME280_pressure;Samples;Min_cycle;Max_cycle;Signal;HPM_P1;HPM_P2
2022/03/04 00:02:06;;;;;;;14.60;9.10;;;;;;;-5.04;72.01;97712.88;6273662;28;20873;-72
2022/03/04 00:05:13;;;;;;;20.43;9.53;;;;;;;-5.03;72.44;97712.00;6240475;28;20235;-72
2022/03/04 00:08:15;;;;;;;15.67;9.47;;;;;;;-5.01;72.21;97717.97;6258540;28;20337;-72
2022/03/04 00:11:17;;;;;;;17.93;9.73;;;;;;;-4.98;72.52;97717.88;6258896;28;20323;-72
2022/03/04 00:14:20;;;;;;;18.87;9.87;;;;;;;-4.95;72.29;97715.25;6224886;28;20239;-73
2022/03/04 00:17:22;;;;;;;16.80;10.30;;;;;;;-4.95;72.60;97707.53;6246494;28;20227;-72
2022/03/04 00:20:24;;;;;;;18.47;9.53;;;;;;;-4.95;72.92;97716.13;6250671;28;20757;-72
2022/03/04 00:23:26;;;;;;;16.17;9.83;;;;;;;-4.94;72.58;97714.38;6265689;28;20706;-72
2022/03/04 00:26:29;;;;;;;15.73;10.10;;;;;;;-4.94;72.72;97714.38;6258216;28;20230;-72
2022/03/04 00:29:32;;;;;;;18.13;10.03;;;;;;;-4.95;72.72;97721.25;6275810;28;20312;-72
2022/03/04 00:32:35;;;;;;;18.63;10.13;;;;;;;-4.97;72.73;97717.00;6269532;28;20266;-71
2022/03/04 00:35:38;;;;;;;16.10;9.40;;;;;;;-5.01;72.53;97713.66;6255516;28;20246;-72
2022/03/04 00:38:40;;;;;;;16.00;9.17;;;;;;;-5.04;73.05;97720.56;6257111;28;20772;-71
2022/03/04 00:41:43;;;;;;;16.20;10.07;;;;;;;-5.07;72.55;97713.75;6257963;28;20230;-72
2022/03/04 00:44:45;;;;;;;17.73;10.30;;;;;;;-5.05;73.34;97703.44;6257622;28;20265;-72
2022/03/04 00:47:48;;;;;;;20.23;10.53;;;;;;;-5.07;73.01;97715.47;6250107;28;20286;-71
2022/03/04 00:50:50;;;;;;;16.53;9.87;;;;;;;-5.10;73.29;97713.84;6274109;28;20826;-72
2022/03/04 00:53:52;;;;;;;21.73;11.70;;;;;;;-5.13;73.02;97715.59;6258257;28;20234;-72
2022/03/04 00:56:54;;;;;;;19.50;11.50;;;;;;;-5.16;72.95;97713.06;6274753;28;20307;-72
2022/03/04 00:59:56;;;;;;;22.50;12.03;;;;;;;-5.19;73.16;97708.00;6275467;28;20237;-71
2022/03/04 01:03:00;;;;;;;20.47;11.70;;;;;;;-5.20;73.40;97707.16;6275905;28;20230;-72
2022/03/04 01:06:04;;;;;;;23.00;11.50;;;;;;;-5.22;73.25;97714.03;6257407;28;20240;-72
2022/03/04 01:09:07;;;;;;;19.43;11.73;;;;;;;-5.25;73.28;97698.66;6257628;28;20280;-72
2022/03/04 01:12:09;;;;;;;24.63;12.10;;;;;;;-5.24;73.48;97703.78;6275826;28;20238;-71
2022/03/04 01:15:12;;;;;;;21.37;12.63;;;;;;;-5.23;73.72;97699.47;6271197;28;20597;-72
2022/03/04 01:18:14;;;;;;;18.97;12.20;;;;;;;-5.23;73.46;97686.63;6227644;28;20666;-72
2022/03/04 01:21:16;;;;;;;24.43;13.00;;;;;;;-5.19;74.68;97690.84;6243769;28;20305;-72
2022/03/04 01:24:18;;;;;;;21.27;13.00;;;;;;;-5.11;73.92;97680.41;6275644;28;20747;-72
2022/03/04 01:27:20;;;;;;;23.53;12.77;;;;;;;-5.02;74.28;97683.66;6256284;28;20687;-72
2022/03/04 01:30:22;;;;;;;24.57;13.07;;;;;;;-4.95;74.21;97682.66;6253728;28;20511;-72
2022/03/04 01:33:25;;;;;;;25.33;13.77;;;;;;;-4.89;73.97;97685.09;6278528;28;20264;-72
2022/03/04 01:36:32;;;;;;;20.20;11.80;;;;;;;-4.81;74.40;97684.13;6264287;28;20258;-72
2022/03/04 01:39:35;;;;;;;21.70;12.47;;;;;;;-4.69;73.58;97678.75;6246563;28;20238;-72
2022/03/04 01:42:39;;;;;;;22.80;13.00;;;;;;;-4.67;74.28;97682.13;6261705;28;20222;-72
2022/03/04 01:45:41;;;;;;;23.83;12.80;;;;;;;-4.64;73.50;97672.63;6255780;28;20225;-73
2022/03/04 01:48:44;;;;;;;20.60;12.43;;;;;;;-4.58;74.01;97672.47;6263406;28;20775;-73
2022/03/04 01:51:47;;;;;;;21.93;12.13;;;;;;;-4.52;73.51;97679.25;6261479;28;20265;-72
2022/03/04 01:54:49;;;;;;;21.50;12.23;;;;;;;-4.47;73.12;97674.81;6279449;28;20250;-72
2022/03/04 01:57:51;;;;;;;21.00;12.87;;;;;;;-4.44;72.29;97674.78;6279830;28;20222;-71
2022/03/04 02:00:54;;;;;;;23.50;11.97;;;;;;;-4.41;72.27;97674.72;6260097;28;20706;-71
2022/03/04 02:03:56;;;;;;;21.83;12.60;;;;;;;-4.42;71.88;97682.47;6254163;28;20635;-72
2022/03/04 02:06:58;;;;;;;19.23;11.80;;;;;;;-4.47;72.01;97675.69;6252206;28;20234;-72
2022/03/04 02:10:00;;;;;;;22.47;12.43;;;;;;;-4.52;72.32;97668.94;6280272;28;20301;-72
2022/03/04 02:13:03;;;;;;;17.27;11.53;;;;;;;-4.52;72.10;97668.94;6260929;28;20238;-72
2022/03/04 02:16:12;;;;;;;19.90;12.03;;;;;;;-4.53;72.03;97668.09;6256157;28;20728;-72
2022/03/04 02:19:16;;;;;;;21.93;12.73;;;;;;;-4.57;72.16;97663.88;6273354;28;20234;-72
2022/03/04 02:22:18;;;;;;;18.73;11.57;;;;;;;-4.60;72.12;97669.13;6254976;28;20238;-72
2022/03/04 02:25:20;;;;;;;23.53;13.37;;;;;;;-4.64;72.09;97670.03;6260890;28;20910;-73
2022/03/04 02:28:22;;;;;;;20.10;12.13;;;;;;;-4.67;71.84;97672.66;6261138;28;20606;-72
2022/03/04 02:31:25;;;;;;;23.87;13.23;;;;;;;-4.67;72.15;97680.38;6260384;28;20240;-72
2022/03/04 02:34:28;;;;;;;23.10;13.23;;;;;;;-4.69;71.95;97676.19;6278160;28;20375;-72
2022/03/04 02:37:30;;;;;;;20.63;12.13;;;;;;;-4.69;71.94;97684.72;6251827;28;20248;-72
2022/03/04 02:40:32;;;;;;;21.20;12.07;;;;;;;-4.63;71.94;97681.19;6219315;28;20230;-71
2022/03/04 02:43:36;;;;;;;25.73;13.20;;;;;;;-4.63;72.11;97689.75;6219546;28;20234;-72
2022/03/04 02:46:38;;;;;;;23.83;13.57;;;;;;;-4.64;72.17;97690.63;6240211;28;20239;-72
2022/03/04 02:49:40;;;;;;;19.30;11.77;;;;;;;-4.63;71.88;97683.75;6237250;28;20668;-72
2022/03/04 02:52:43;;;;;;;24.40;13.50;;;;;;;-4.57;71.81;97697.34;6253257;28;20235;-73
2022/03/04 02:55:45;;;;;;;24.90;13.33;;;;;;;-4.58;71.91;97693.06;6236053;28;20777;-72
2022/03/04 02:58:47;;;;;;;24.47;13.97;;;;;;;-4.59;71.32;97685.41;6236274;28;20601;-71
2022/03/04 03:01:49;;;;;;;22.37;13.13;;;;;;;-4.62;71.41;97685.47;6253581;28;20723;-72
2022/03/04 03:04:52;;;;;;;21.20;12.53;;;;;;;-4.64;72.19;97689.78;6235401;28;20226;-72
2022/03/04 03:07:54;;;;;;;26.13;14.90;;;;;;;-4.71;71.94;97690.78;6253910;28;20234;-72
2022/03/04 03:10:57;;;;;;;24.23;13.30;;;;;;;-4.76;72.93;97692.59;6253633;28;20230;-71
2022/03/04 03:13:59;;;;;;;22.73;14.17;;;;;;;-4.81;72.65;97684.13;6253883;28;20624;-72
2022/03/04 03:17:01;;;;;;;22.83;13.43;;;;;;;-4.82;72.22;97696.16;6218268;28;20234;-72
2022/03/04 03:20:06;;;;;;;23.33;13.23;;;;;;;-4.84;72.94;97700.47;6238049;28;20715;-71
2022/03/04 03:23:09;;;;;;;26.40;14.27;;;;;;;-4.82;72.83;97703.88;6229296;28;20559;-72
2022/03/04 03:26:11;;;;;;;22.87;13.83;;;;;;;-4.84;72.27;97697.91;6235837;28;20235;-71
2022/03/04 03:29:14;;;;;;;24.47;14.87;;;;;;;-4.87;72.66;97698.78;6252602;28;20234;-73
2022/03/04 03:32:16;;;;;;;26.67;14.23;;;;;;;-4.89;72.59;97700.53;6253154;28;20597;-72
2022/03/04 03:35:18;;;;;;;23.80;14.03;;;;;;;-4.92;72.66;97700.63;6232387;28;20235;-72
2022/03/04 03:38:23;;;;;;;23.60;14.90;;;;;;;-4.92;73.50;97702.34;6259805;28;20322;-72
2022/03/04 03:41:26;;;;;;;24.83;14.40;;;;;;;-4.94;73.17;97699.81;6259570;28;20249;-72
2022/03/04 03:44:28;;;;;;;25.00;15.10;;;;;;;-4.98;73.47;97712.75;6277359;28;20234;-72
2022/03/04 03:47:31;;;;;;;25.03;15.10;;;;;;;-4.98;73.19;97716.16;6275570;28;20250;-73
2022/03/04 03:50:33;;;;;;;25.57;15.57;;;;;;;-4.97;73.48;97715.28;6278929;28;20234;-72
2022/03/04 03:53:35;;;;;;;35.47;15.33;;;;;;;-4.92;73.54;97726.34;6258669;28;20245;-72
2022/03/04 03:56:38;;;;;;;28.80;16.03;;;;;;;-4.90;73.07;97722.03;6277628;28;20234;-72
2022/03/04 03:59:40;;;;;;;26.60;14.87;;;;;;;-4.86;73.13;97723.66;6276164;28;20313;-72
2022/03/04 04:02:42;;;;;;;26.40;15.17;;;;;;;-4.89;73.27;97731.44;6259205;28;20218;-72
2022/03/04 04:05:45;;;;;;;28.33;15.40;;;;;;;-4.89;73.64;97731.44;6259422;28;20233;-72
2022/03/04 04:08:47;;;;;;;29.53;15.60;;;;;;;-4.81;72.58;97730.47;6259044;28;20230;-72
2022/03/04 04:11:49;;;;;;;31.13;16.37;;;;;;;-4.72;72.62;97736.28;6275555;28;20241;-72
2022/03/04 04:14:51;;;;;;;30.03;16.07;;;;;;;-4.62;72.80;97742.94;6258643;28;20230;-72
2022/03/04 04:17:54;;;;;;;31.43;17.43;;;;;;;-4.51;72.87;97741.03;6249723;28;20279;-72
2022/03/04 04:20:56;;;;;;;29.27;16.23;;;;;;;-4.46;73.26;97743.47;6250127;28;20226;-72
2022/03/04 04:23:58;;;;;;;25.30;15.23;;;;;;;-4.44;72.79;97739.16;6269489;28;20257;-72
2022/03/04 04:27:00;;;;;;;29.77;16.27;;;;;;;-4.41;72.96;97740.81;6275843;28;20226;-73
2022/03/04 04:30:04;;;;;;;25.30;16.63;;;;;;;-4.29;72.41;97746.56;6257510;28;20718;-72
2022/03/04 04:33:06;;;;;;;31.37;17.23;;;;;;;-4.18;72.51;97752.34;6258156;28;20282;-73
2022/03/04 04:36:08;;;;;;;36.50;19.80;;;;;;;-4.07;72.54;97754.69;6249024;28;20238;-73
2022/03/04 04:39:10;;;;;;;35.83;19.57;;;;;;;-3.94;71.94;97750.97;6255017;28;20207;-72
2022/03/04 04:42:12;;;;;;;40.53;21.90;;;;;;;-3.83;71.10;97755.91;6268580;28;20210;-72
2022/03/04 04:45:15;;;;;;;43.67;23.63;;;;;;;-3.65;70.81;97754.63;6272744;28;20215;-72
2022/03/04 04:48:17;;;;;;;45.43;22.80;;;;;;;-3.40;69.44;97754.03;6243950;28;20209;-73
2022/03/04 04:51:19;;;;;;;43.03;22.47;;;;;;;-3.27;69.05;97759.72;6276521;28;20230;-73
2022/03/04 04:54:21;;;;;;;45.70;24.57;;;;;;;-3.09;68.50;97758.44;6257810;28;20226;-73
2022/03/04 04:57:23;;;;;;;48.20;24.30;;;;;;;-3.00;68.01;97756.50;6275964;28;20225;-73
2022/03/04 05:00:26;;;;;;;44.80;24.03;;;;;;;-2.92;67.79;97764.03;6275630;28;20224;-73
2022/03/04 05:03:28;;;;;;;43.10;22.90;;;;;;;-2.86;67.45;97755.28;6257083;28;20280;-73
2022/03/04 05:06:30;;;;;;;44.50;23.73;;;;;;;-2.82;67.17;97759.47;6258354;28;20620;-73
2022/03/04 05:09:33;;;;;;;45.03;25.33;;;;;;;-2.82;67.47;97762.91;6257443;28;20379;-73
2022/03/04 05:12:35;;;;;;;43.40;24.37;;;;;;;-2.79;67.66;97761.97;6274664;28;20769;-73
2022/03/04 05:15:38;;;;;;;45.20;24.43;;;;;;;-2.78;67.24;97769.66;6269740;28;20306;-72
2022/03/04 05:18:40;;;;;;;41.87;24.30;;;;;;;-2.73;66.73;97770.41;6254000;28;20222;-72
2022/03/04 05:21:42;;;;;;;45.57;23.77;;;;;;;-2.70;67.30;97769.50;6250549;28;20314;-72
2022/03/04 05:24:45;;;;;;;49.37;25.73;;;;;;;-2.69;66.36;97784.94;6275227;28;20222;-73
2022/03/04 05:27:47;;;;;;;45.83;25.20;;;;;;;-2.69;67.63;97784.94;6259007;28;20309;-73
2022/03/04 05:30:49;;;;;;;41.67;24.50;;;;;;;-2.67;67.55;97787.47;6274349;28;20225;-72
2022/03/04 05:33:51;;;;;;;45.67;25.40;;;;;;;-2.66;67.24;97790.03;6257191;28;20242;-71
2022/03/04 05:36:54;;;;;;;45.23;24.10;;;;;;;-2.65;67.63;97798.63;6254787;28;20911;-72
2022/03/04 05:39:56;;;;;;;45.10;23.87;;;;;;;-2.64;67.44;97801.16;6259153;28;20253;-73
2022/03/04 05:42:58;;;;;;;50.60;25.90;;;;;;;-2.63;67.78;97795.13;6257378;28;20605;-73
2022/03/04 05:46:01;;;;;;;44.93;24.43;;;;;;;-2.61;67.15;97797.66;6249043;28;20257;-72
2022/03/04 05:49:04;;;;;;;44.23;25.43;;;;;;;-2.61;67.42;97795.94;6256648;28;20222;-72
2022/03/04 05:52:06;;;;;;;47.87;25.50;;;;;;;-2.57;67.41;97799.25;6257404;28;20744;-73
2022/03/04 05:55:09;;;;;;;48.70;25.87;;;;;;;-2.55;67.56;97809.56;6256542;28;20718;-73
2022/03/04 05:58:11;;;;;;;46.47;25.17;;;;;;;-2.52;67.35;97812.91;6256294;28;20639;-72
2022/03/04 06:01:13;;;;;;;49.57;24.70;;;;;;;-2.49;67.60;97820.56;6273653;28;20706;-72
2022/03/04 06:04:15;;;;;;;48.87;26.17;;;;;;;-2.48;67.89;97822.28;6257788;28;20230;-72
2022/03/04 06:07:17;;;;;;;47.87;24.20;;;;;;;-2.45;68.05;97822.19;6273684;28;20713;-73
2022/03/04 06:10:19;;;;;;;48.23;25.90;;;;;;;-2.43;67.44;97819.56;6239955;28;20230;-72
2022/03/04 06:13:21;;;;;;;51.53;25.97;;;;;;;-2.40;67.13;97824.66;6257185;28;20234;-73
2022/03/04 06:16:23;;;;;;;52.07;25.20;;;;;;;-2.39;67.47;97831.50;6243396;28;20234;-73
2022/03/04 06:19:25;;;;;;;44.77;24.90;;;;;;;-2.36;67.47;97836.59;6263620;28;20255;-72
2022/03/04 06:22:28;;;;;;;48.30;23.90;;;;;;;-2.35;67.58;97833.13;6252840;28;20694;-72
2022/03/04 06:25:30;;;;;;;49.83;25.60;;;;;;;-2.33;67.46;97839.97;6260942;28;20230;-72
2022/03/04 06:28:31;;;;;;;50.27;27.07;;;;;;;-2.31;67.37;97845.94;6261188;28;20249;-73
2022/03/04 06:31:34;;;;;;;46.83;25.10;;;;;;;-2.29;67.29;97845.88;6260372;28;20234;-73
2022/03/04 06:34:37;;;;;;;49.00;24.27;;;;;;;-2.26;67.45;97849.25;6260280;28;20766;-73
2022/03/04 06:37:39;;;;;;;51.37;23.97;;;;;;;-2.22;67.84;97855.19;6278878;28;20234;-73
2022/03/04 06:40:41;;;;;;;48.80;24.47;;;;;;;-2.19;67.37;97849.06;6259642;28;20222;-73
2022/03/04 06:43:44;;;;;;;42.73;22.67;;;;;;;-2.16;67.08;97856.75;6261359;28;20445;-73
2022/03/04 06:46:47;;;;;;;47.53;25.53;;;;;;;-2.14;67.60;97862.72;6261883;28;20254;-73
2022/03/04 06:49:49;;;;;;;49.13;24.47;;;;;;;-2.14;66.67;97860.16;6270970;28;20574;-73
2022/03/04 06:52:52;;;;;;;43.93;23.80;;;;;;;-2.08;67.04;97866.00;6259850;28;20240;-73
2022/03/04 06:55:54;;;;;;;46.37;24.27;;;;;;;-2.08;67.31;97867.72;6261603;28;20612;-73
2022/03/04 06:58:56;;;;;;;44.70;24.60;;;;;;;-2.03;67.33;97877.06;6278028;28;20233;-73
2022/03/04 07:01:59;;;;;;;48.60;24.93;;;;;;;-2.02;67.22;97881.34;6271071;28;20222;-73
2022/03/04 07:05:06;;;;;;;50.20;25.87;;;;;;;-2.01;66.65;97880.47;6277429;28;20231;-73
2022/03/04 07:08:11;;;;;;;49.40;25.47;;;;;;;-1.96;66.94;97885.50;6259200;28;20930;-72
2022/03/04 07:11:13;;;;;;;47.37;25.10;;;;;;;-1.97;67.02;97876.03;6260148;28;20666;-73
2022/03/04 07:14:15;;;;;;;49.97;26.93;;;;;;;-1.98;66.75;97880.34;6260315;28;20230;-73
2022/03/04 07:17:18;;;;;;;56.40;26.40;;;;;;;-1.95;66.74;97887.19;6273053;28;20586;-73
2022/03/04 07:20:20;;;;;;;45.43;24.50;;;;;;;-1.85;66.85;97886.06;6276118;28;20718;-73
2022/03/04 07:23:22;;;;;;;46.43;24.73;;;;;;;-1.79;66.71;97888.47;6276807;28;20226;-72
2022/03/04 07:26:24;;;;;;;52.33;25.37;;;;;;;-1.76;66.42;97884.94;6277107;28;20605;-73
2022/03/04 07:29:26;;;;;;;48.50;25.83;;;;;;;-1.78;66.81;97890.16;6258979;28;20268;-73
2022/03/04 07:32:28;;;;;;;51.47;24.77;;;;;;;-1.83;66.21;97881.69;6259643;28;20234;-73
2022/03/04 07:35:30;;;;;;;51.03;24.83;;;;;;;-1.84;66.32;97894.66;6259896;28;20225;-73
2022/03/04 07:38:32;;;;;;;45.60;23.97;;;;;;;-1.84;66.53;97894.66;6276360;28;20303;-73
2022/03/04 07:41:35;;;;;;;49.07;24.70;;;;;;;-1.79;66.53;97900.53;6277391;28;20353;-73
2022/03/04 07:44:37;;;;;;;48.00;25.63;;;;;;;-1.73;66.32;97900.38;6275539;28;20252;-73
2022/03/04 07:47:41;;;;;;;44.90;24.50;;;;;;;-1.68;65.81;97899.34;6234728;28;20234;-73
2022/03/04 07:50:43;;;;;;;49.73;26.17;;;;;;;-1.74;65.85;97896.94;6277493;28;20655;-73
2022/03/04 07:53:45;;;;;;;51.83;25.77;;;;;;;-1.77;65.83;97899.63;6258925;28;20637;-73
2022/03/04 07:56:47;;;;;;;46.93;24.30;;;;;;;-1.76;65.76;97903.91;6258897;28;20226;-73
2022/03/04 07:59:49;;;;;;;47.73;24.90;;;;;;;-1.73;65.62;97911.59;6259001;28;20222;-73
2022/03/04 08:02:52;;;;;;;54.17;25.90;;;;;;;-1.73;66.15;97905.56;6258070;28;20257;-73
2022/03/04 08:05:54;;;;;;;50.23;26.20;;;;;;;-1.75;66.27;97908.19;6276574;28;20259;-73
2022/03/04 08:08:56;;;;;;;51.70;25.53;;;;;;;-1.63;66.27;97915.63;6259416;28;20230;-72
2022/03/04 08:11:58;;;;;;;50.77;26.17;;;;;;;-1.64;66.00;97924.25;6275105;28;20238;-72
2022/03/04 08:15:03;;;;;;;50.10;25.80;;;;;;;-1.59;66.20;97921.53;6257387;28;20225;-72
2022/03/04 08:18:05;;;;;;;51.30;26.53;;;;;;;-1.48;65.86;97927.25;6257621;28;20684;-73
2022/03/04 08:21:08;;;;;;;50.53;26.70;;;;;;;-1.25;65.75;97903.28;6260813;28;20215;-72
2022/03/04 08:24:10;;;;;;;49.60;24.63;;;;;;;-0.87;64.28;97909.91;6257513;28;20198;-72
2022/03/04 08:27:12;;;;;;;54.57;25.77;;;;;;;-0.67;63.44;97909.25;6258472;28;20679;-72
2022/03/04 08:30:14;;;;;;;47.67;26.07;;;;;;;-0.58;63.25;97903.78;6258130;28;20252;-72
2022/03/04 08:33:16;;;;;;;47.60;25.47;;;;;;;-0.47;62.07;97899.94;6257131;28;20344;-72
2022/03/04 08:36:18;;;;;;;42.67;23.53;;;;;;;-0.45;61.40;97900.75;6274964;28;20718;-72
2022/03/04 08:39:20;;;;;;;44.70;22.37;;;;;;;-0.47;61.29;97896.50;6275378;28;20229;-73
2022/03/04 08:42:22;;;;;;;43.43;23.13;;;;;;;-0.36;60.95;97899.59;6275291;28;20249;-73
2022/03/04 08:45:25;;;;;;;43.10;23.40;;;;;;;0.13;59.90;97898.75;6273684;28;20232;-73
2022/03/04 08:48:28;;;;;;;45.83;21.67;;;;;;;0.35;59.17;97885.88;6274498;28;20592;-72
2022/03/04 08:51:30;;;;;;;42.33;23.03;;;;;;;0.25;58.82;97892.28;6275459;28;20676;-73
2022/03/04 08:54:32;;;;;;;44.93;22.77;;;;;;;0.33;59.49;97898.91;6275529;28;20507;-72
2022/03/04 08:57:34;;;;;;;39.97;22.30;;;;;;;0.21;58.82;97888.94;6275651;28;20226;-72
2022/03/04 09:00:37;;;;;;;41.47;22.93;;;;;;;0.36;58.00;97888.41;6275361;28;20375;-72
2022/03/04 09:03:39;;;;;;;40.03;22.60;;;;;;;0.70;56.30;97892.34;6240817;28;20229;-73
2022/03/04 09:06:41;;;;;;;42.60;22.50;;;;;;;1.04;55.55;97894.50;6257038;28;20222;-72
2022/03/04 09:09:43;;;;;;;42.87;23.10;;;;;;;1.34;54.95;97887.25;6274541;28;20222;-73
2022/03/04 09:12:46;;;;;;;40.40;20.97;;;;;;;1.67;54.13;97903.25;6274849;28;20763;-73
2022/03/04 09:15:48;;;;;;;43.87;23.43;;;;;;;1.82;53.40;97895.66;6266565;28;20219;-73
2022/03/04 09:18:50;;;;;;;41.60;22.50;;;;;;;1.86;53.52;97896.38;6270419;28;20222;-74
2022/03/04 09:21:52;;;;;;;42.97;23.53;;;;;;;2.00;53.23;97898.38;6253085;28;20700;-73
2022/03/04 09:24:54;;;;;;;38.60;20.83;;;;;;;2.53;52.17;97898.66;6257409;28;20239;-73
2022/03/04 09:27:57;;;;;;;41.87;22.00;;;;;;;2.91;50.97;97891.69;6257460;28;20215;-73
2022/03/04 09:31:00;;;;;;;44.17;24.03;;;;;;;2.76;50.21;97895.00;6256772;28;20230;-74
2022/03/04 09:34:02;;;;;;;41.13;22.00;;;;;;;3.04;50.42;97897.19;6275081;28;20267;-73
2022/03/04 09:37:05;;;;;;;40.00;21.63;;;;;;;3.54;49.81;97895.63;6237511;28;20226;-73
2022/03/04 09:40:08;;;;;;;41.00;22.33;;;;;;;4.12;48.80;97891.88;6274716;28;20609;-72
2022/03/04 09:43:10;;;;;;;36.97;22.13;;;;;;;4.36;46.41;97899.31;6276101;28;20569;-73
2022/03/04 09:46:12;;;;;;;34.80;20.47;;;;;;;3.78;48.11;97890.97;6263148;28;21752;-72
2022/03/04 09:49:17;;;;;;;39.97;21.70;;;;;;;3.69;47.99;97894.84;6269052;28;20228;-73
2022/03/04 09:52:19;;;;;;;35.00;20.97;;;;;;;3.32;48.91;97902.78;6257498;28;20711;-73
2022/03/04 09:55:21;;;;;;;37.90;23.40;;;;;;;3.20;49.63;97892.94;6262407;28;20239;-73
2022/03/04 09:58:24;;;;;;;36.23;22.23;;;;;;;3.13;49.89;97894.16;6244576;28;20682;-73
2022/03/04 10:01:26;;;;;;;37.83;21.63;;;;;;;3.28;49.22;97891.66;6279956;28;20238;-73
2022/03/04 10:04:31;;;;;;;35.73;20.63;;;;;;;2.85;49.95;97900.66;6262519;28;20226;-73
2022/03/04 10:07:39;;;;;;;31.07;20.47;;;;;;;2.94;48.87;97888.94;6279092;28;20231;-73
2022/03/04 10:10:49;;;;;;;32.80;18.90;;;;;;;3.54;48.73;97889.56;6279810;28;20234;-73
2022/03/04 10:13:54;;;;;;;34.23;19.77;;;;;;;3.91;47.49;97885.97;6261390;28;20227;-73
2022/03/04 10:16:58;;;;;;;29.33;18.37;;;;;;;4.19;46.81;97891.50;6244105;28;20768;-71
2022/03/04 10:20:03;;;;;;;33.83;20.20;;;;;;;4.26;46.09;97892.88;6242020;28;20358;-72
2022/03/04 10:23:26;;;;;;;32.40;19.20;;;;;;;4.54;45.75;97881.81;6267934;28;20711;-71
2022/03/04 10:26:29;;;;;;;31.30;19.07;;;;;;;4.05;46.17;97893.97;6279163;28;20715;-74
2022/03/04 10:29:33;;;;;;;28.73;17.13;;;;;;;4.72;46.32;97893.91;6278935;28;20443;-72
2022/03/04 10:32:46;;;;;;;28.07;16.77;;;;;;;5.00;44.01;97887.16;6278537;28;20700;-73
2022/03/04 10:36:09;;;;;;;30.27;17.53;;;;;;;4.31;44.52;97896.06;6253758;28;20239;-73
2022/03/04 10:39:11;;;;;;;28.23;17.60;;;;;;;3.33;46.93;97889.69;6260080;28;20239;-72
2022/03/04 10:42:16;;;;;;;30.43;18.93;;;;;;;3.40;47.26;97892.81;6260529;28;20262;-72
2022/03/04 10:45:24;;;;;;;29.50;17.97;;;;;;;2.82;48.19;97886.91;6259979;28;20265;-73
2022/03/04 10:48:26;;;;;;;27.97;17.37;;;;;;;2.88;48.65;97886.63;6278116;28;20280;-73
2022/03/04 10:51:37;;;;;;;28.90;17.70;;;;;;;3.10;48.07;97894.28;6278519;28;20220;-72
2022/03/04 10:54:50;;;;;;;33.13;18.43;;;;;;;3.01;48.57;97889.50;6259678;28;20236;-73
2022/03/04 10:57:53;;;;;;;30.00;16.83;;;;;;;3.21;47.98;97881.59;6260305;28;20319;-73
2022/03/04 11:00:55;;;;;;;31.87;18.17;;;;;;;3.15;48.05;97887.94;6259594;28;20291;-73
2022/03/04 11:03:59;;;;;;;24.90;15.70;;;;;;;3.23;47.83;97880.59;6278639;28;20228;-73
2022/03/04 11:07:01;;;;;;;27.50;16.87;;;;;;;3.53;47.04;97874.81;6259111;28;20234;-72
2022/03/04 11:10:04;;;;;;;27.00;16.67;;;;;;;3.64;46.75;97869.91;6277365;28;20629;-72
2022/03/04 11:13:08;;;;;;;25.87;15.80;;;;;;;3.36;47.17;97878.25;6259734;28;20245;-73
2022/03/04 11:16:10;;;;;;;28.67;16.67;;;;;;;3.39;47.74;97879.88;6248704;28;20546;-72
2022/03/04 11:19:12;;;;;;;30.33;18.20;;;;;;;3.70;46.56;97880.03;6253500;28;20458;-73
2022/03/04 11:22:16;;;;;;;30.50;17.50;;;;;;;3.60;47.59;97884.88;6271407;28;20744;-72
2022/03/04 11:25:19;;;;;;;26.47;16.77;;;;;;;3.74;46.61;97886.81;6277796;28;20593;-72
2022/03/04 11:28:26;;;;;;;29.47;17.20;;;;;;;4.12;46.80;97866.59;6278088;28;20234;-73
2022/03/04 11:31:29;;;;;;;29.17;16.73;;;;;;;4.12;45.51;97865.75;6260611;28;20236;-73
2022/03/04 11:34:39;;;;;;;22.73;15.07;;;;;;;4.06;45.53;97879.97;6276488;28;20676;-73
2022/03/04 11:37:50;;;;;;;28.17;16.57;;;;;;;3.88;45.54;97867.88;6277059;28;20307;-72
2022/03/04 11:40:52;;;;;;;30.10;17.57;;;;;;;4.06;46.31;97856.47;6277396;28;20348;-73
2022/03/04 11:44:13;;;;;;;26.37;15.53;;;;;;;3.91;46.27;97865.91;6277224;28;20250;-72
2022/03/04 11:47:15;;;;;;;25.73;16.00;;;;;;;4.23;46.00;97858.22;6256364;28;20235;-72
2022/03/04 11:50:25;;;;;;;28.27;16.50;;;;;;;4.38;45.54;97855.66;6256670;28;20229;-73
2022/03/04 11:53:28;;;;;;;26.53;16.23;;;;;;;4.55;45.35;97859.97;6258238;28;20236;-73
2022/03/04 11:56:50;;;;;;;27.07;16.87;;;;;;;4.90;44.70;97854.59;6276735;28;20235;-72
2022/03/04 11:59:56;;;;;;;26.07;17.27;;;;;;;4.99;43.40;97846.28;6258781;28;20670;-73
2022/03/04 12:03:08;;;;;;;29.00;16.23;;;;;;;5.12;42.64;97848.09;6281531;28;20326;-72
2022/03/04 12:06:23;;;;;;;24.80;15.53;;;;;;;5.56;43.33;97852.59;6257647;28;20325;-73
2022/03/04 12:09:30;;;;;;;27.47;16.73;;;;;;;5.45;43.31;97844.53;6259586;28;20714;-73
2022/03/04 12:12:32;;;;;;;28.43;17.57;;;;;;;5.40;42.59;97852.63;6275557;28;20238;-72
2022/03/04 12:15:39;;;;;;;26.77;16.60;;;;;;;5.07;42.96;97846.69;6255368;28;20776;-72
2022/03/04 12:18:47;;;;;;;26.93;17.03;;;;;;;5.12;44.05;97850.72;6274492;28;20234;-72
2022/03/04 12:21:58;;;;;;;28.77;16.43;;;;;;;5.11;43.87;97843.81;6258157;28;20244;-73
2022/03/04 12:25:02;;;;;;;25.60;16.37;;;;;;;5.03;43.84;97843.38;6277568;28;20621;-72
2022/03/04 12:28:15;;;;;;;26.17;16.57;;;;;;;5.14;43.90;97838.41;6256719;28;20244;-72
2022/03/04 12:31:19;;;;;;;26.97;16.33;;;;;;;5.48;42.60;97846.97;6281104;28;20237;-72
2022/03/04 12:34:24;;;;;;;27.20;16.50;;;;;;;5.95;41.57;97835.53;6277120;28;20754;-73
2022/03/04 12:37:27;;;;;;;29.53;17.03;;;;;;;5.44;42.86;97846.31;6240823;28;20737;-73
2022/03/04 12:40:30;;;;;;;25.73;15.43;;;;;;;5.32;42.73;97830.44;6251507;28;20831;-72
2022/03/04 12:43:37;;;;;;;27.10;16.50;;;;;;;5.37;42.25;97831.03;6251746;28;20291;-72
2022/03/04 12:46:43;;;;;;;23.87;14.83;;;;;;;5.23;42.28;97831.81;6222708;28;20720;-73
2022/03/04 12:49:46;;;;;;;23.43;14.77;;;;;;;5.08;42.92;97828.31;6251413;28;20341;-73
2022/03/04 12:52:48;;;;;;;22.50;14.47;;;;;;;5.03;42.53;97826.84;6250697;28;20230;-73
2022/03/04 12:55:55;;;;;;;22.67;14.50;;;;;;;5.15;43.45;97829.63;6251598;28;20732;-73
2022/03/04 12:59:01;;;;;;;24.27;13.53;;;;;;;5.16;42.06;97825.25;6250667;28;20577;-72
2022/03/04 13:02:03;;;;;;;19.23;13.43;;;;;;;5.46;40.93;97828.75;6250367;28;20226;-72
2022/03/04 13:05:06;;;;;;;20.47;12.47;;;;;;;5.74;41.51;97832.38;6250841;28;20325;-72
2022/03/04 13:08:13;;;;;;;18.47;12.17;;;;;;;5.49;40.20;97827.72;6250941;28;20231;-72
2022/03/04 13:11:18;;;;;;;17.77;11.83;;;;;;;5.22;40.41;97824.88;6233139;28;20237;-73
2022/03/04 13:14:23;;;;;;;17.33;12.00;;;;;;;5.72;40.64;97819.38;6250536;28;20760;-73
2022/03/04 13:17:26;;;;;;;19.03;12.90;;;;;;;6.30;38.39;97815.91;6212301;28;20246;-72
2022/03/04 13:20:28;;;;;;;20.13;12.43;;;;;;;6.83;37.02;97809.13;6233535;28;20742;-73
2022/03/04 13:23:30;;;;;;;18.20;11.87;;;;;;;7.21;37.48;97810.13;6247780;28;20242;-72
2022/03/04 13:26:32;;;;;;;16.93;12.13;;;;;;;6.49;38.05;97820.91;6230897;28;20787;-72
2022/03/04 13:29:41;;;;;;;18.80;11.63;;;;;;;5.32;40.76;97833.91;6209056;28;20306;-72
2022/03/04 13:32:46;;;;;;;18.83;12.10;;;;;;;4.27;42.88;97836.25;6242372;28;20242;-72
2022/03/04 13:35:57;;;;;;;17.80;11.67;;;;;;;3.80;44.72;97833.44;6259052;28;20237;-72
2022/03/04 13:39:14;;;;;;;16.00;11.50;;;;;;;3.86;45.43;97831.38;6279557;28;20233;-72
2022/03/04 13:42:23;;;;;;;17.03;11.20;;;;;;;3.79;45.48;97837.84;6278559;28;20305;-72
2022/03/04 13:45:39;;;;;;;16.10;11.20;;;;;;;3.72;45.59;97837.28;6279496;28;20246;-72
2022/03/04 13:48:59;;;;;;;19.47;12.23;;;;;;;3.72;45.72;97826.84;6279152;28;20628;-73
2022/03/04 13:52:01;;;;;;;16.33;11.97;;;;;;;3.96;44.91;97821.31;6261607;28;20235;-72
2022/03/04 13:55:04;;;;;;;17.10;11.27;;;;;;;4.16;44.45;97834.19;6279609;28;20274;-72
2022/03/04 13:58:11;;;;;;;16.90;10.17;;;;;;;4.02;44.38;97823.59;6261643;28;20597;-72
2022/03/04 14:01:21;;;;;;;14.93;10.27;;;;;;;3.84;44.34;97822.78;6280493;28;20819;-72
2022/03/04 14:04:23;;;;;;;15.90;10.13;;;;;;;3.65;45.14;97817.66;6278669;28;20709;-71
2022/03/04 14:07:25;;;;;;;14.17;9.47;;;;;;;3.46;45.40;97829.94;6278454;28;20261;-72
2022/03/04 14:10:27;;;;;;;13.90;9.63;;;;;;;3.40;45.74;97831.97;6279210;28;20728;-72